sensor_id;sensor_type;location;lat;lon;timestamp;P1;durP1;ratioP1;P2;durP2;ratioP2
12852;SDS011;6495;51.808;7.478;2023-03-14T00:02:32;5.45;;;1.50;;
12852;SDS011;6495;51.808;7.478;2023-03-14T00:05:00;1.75;;;1.27;;
12852;SDS011;6495;51.808;7.478;2023-03-14T00:07:33;3.17;;;1.27;;
12852;SDS011;6495;51.808;7.478;2023-03-14T00:10:03;1.92;;;1.38;;
12852;SDS011;6495;51.808;7.478;2023-03-14T00:12:34;3.80;;;1.38;;
12852;SDS011;6495;51.808;7.478;2023-03-14T00:15:04;3.40;;;1.13;;
12852;SDS011;6495;51.808;7.478;2023-03-14T00:17:34;3.70;;;1.30;;
12852;SDS011;6495;51.808;7.478;2023-03-14T00:20:04;4.07;;;1.33;;
12852;SDS011;6495;51.808;7.478;2023-03-14T00:22:36;2.83;;;1.30;;
12852;SDS011;6495;51.808;7.478;2023-03-14T00:25:05;3.92;;;1.75;;
12852;SDS011;6495;51.808;7.478;2023-03-14T00:27:36;5.05;;;1.40;;
12852;SDS011;6495;51.808;7.478;2023-03-14T00:30:08;3.75;;;1.17;;
12852;SDS011;6495;51.808;7.478;2023-03-14T00:32:39;2.53;;;1.15;;
12852;SDS011;6495;51.808;7.478;2023-03-14T00:35:08;2.40;;;1.20;;
12852;SDS011;6495;51.808;7.478;2023-03-14T00:37:37;2.53;;;1.45;;
12852;SDS011;6495;51.808;7.478;2023-03-14T00:40:05;2.90;;;1.23;;
12852;SDS011;6495;51.808;7.478;2023-03-14T00:42:36;3.72;;;1.25;;
12852;SDS011;6495;51.808;7.478;2023-03-14T00:45:04;4.57;;;1.63;;
12852;SDS011;6495;51.808;7.478;2023-03-14T00:47:36;3.67;;;1.65;;
12852;SDS011;6495;51.808;7.478;2023-03-14T00:50:05;2.47;;;1.30;;
12852;SDS011;6495;51.808;7.478;2023-03-14T00:52:34;3.08;;;1.17;;
12852;SDS011;6495;51.808;7.478;2023-03-14T00:55:04;2.70;;;1.38;;
12852;SDS011;6495;51.808;7.478;2023-03-14T00:57:33;5.10;;;1.42;;
12852;SDS011;6495;51.808;7.478;2023-03-14T01:00:02;2.42;;;1.20;;
12852;SDS011;6495;51.808;7.478;2023-03-14T01:02:36;1.80;;;1.15;;
12852;SDS011;6495;51.808;7.478;2023-03-14T01:05:04;3.38;;;1.00;;
12852;SDS011;6495;51.808;7.478;2023-03-14T01:07:33;2.20;;;1.05;;
12852;SDS011;6495;51.808;7.478;2023-03-14T01:10:05;1.92;;;1.10;;
12852;SDS011;6495;51.808;7.478;2023-03-14T01:12:36;6.30;;;1.48;;
12852;SDS011;6495;51.808;7.478;2023-03-14T01:15:04;3.53;;;1.17;;
12852;SDS011;6495;51.808;7.478;2023-03-14T01:17:35;6.15;;;1.52;;
12852;SDS011;6495;51.808;7.478;2023-03-14T01:20:06;3.13;;;1.38;;
12852;SDS011;6495;51.808;7.478;2023-03-14T01:22:37;5.45;;;1.40;;
12852;SDS011;6495;51.808;7.478;2023-03-14T01:25:07;1.95;;;1.23;;
12852;SDS011;6495;51.808;7.478;2023-03-14T01:27:37;3.72;;;1.25;;
12852;SDS011;6495;51.808;7.478;2023-03-14T01:30:07;2.05;;;0.85;;
12852;SDS011;6495;51.808;7.478;2023-03-14T01:32:39;3.88;;;1.13;;
12852;SDS011;6495;51.808;7.478;2023-03-14T01:35:07;1.25;;;1.00;;
12852;SDS011;6495;51.808;7.478;2023-03-14T01:37:37;1.42;;;1.00;;
12852;SDS011;6495;51.808;7.478;2023-03-14T01:40:10;4.80;;;1.20;;
12852;SDS011;6495;51.808;7.478;2023-03-14T01:42:44;2.55;;;0.98;;
12852;SDS011;6495;51.808;7.478;2023-03-14T01:48:43;1.13;;;0.90;;
12852;SDS011;6495;51.808;7.478;2023-03-14T01:51:20;2.60;;;0.75;;
12852;SDS011;6495;51.808;7.478;2023-03-14T01:53:54;3.97;;;0.80;;
12852;SDS011;6495;51.808;7.478;2023-03-14T01:56:33;2.05;;;0.55;;
12852;SDS011;6495;51.808;7.478;2023-03-14T01:59:04;3.50;;;1.10;;
12852;SDS011;6495;51.808;7.478;2023-03-14T02:01:36;4.45;;;1.13;;
12852;SDS011;6495;51.808;7.478;2023-03-14T02:04:08;1.42;;;0.77;;
12852;SDS011;6495;51.808;7.478;2023-03-14T02:06:44;2.83;;;0.98;;
12852;SDS011;6495;51.808;7.478;2023-03-14T02:09:21;5.90;;;0.75;;
12852;SDS011;6495;51.808;7.478;2023-03-14T02:11:50;1.75;;;0.68;;
12852;SDS011;6495;51.808;7.478;2023-03-14T02:14:34;0.47;;;0.40;;
12852;SDS011;6495;51.808;7.478;2023-03-14T02:17:18;1.40;;;0.77;;
12852;SDS011;6495;51.808;7.478;2023-03-14T02:20:19;3.03;;;0.32;;
12852;SDS011;6495;51.808;7.478;2023-03-14T02:22:58;2.47;;;0.80;;
12852;SDS011;6495;51.808;7.478;2023-03-14T02:25:31;2.50;;;0.68;;
12852;SDS011;6495;51.808;7.478;2023-03-14T02:28:11;2.42;;;0.82;;
12852;SDS011;6495;51.808;7.478;2023-03-14T02:30:40;3.22;;;0.80;;
12852;SDS011;6495;51.808;7.478;2023-03-14T02:33:11;2.53;;;0.80;;
12852;SDS011;6495;51.808;7.478;2023-03-14T02:35:46;3.28;;;0.82;;
12852;SDS011;6495;51.808;7.478;2023-03-14T02:38:20;2.78;;;0.75;;
12852;SDS011;6495;51.808;7.478;2023-03-14T02:40:59;1.65;;;0.80;;
12852;SDS011;6495;51.808;7.478;2023-03-14T02:43:32;0.93;;;0.65;;
12852;SDS011;6495;51.808;7.478;2023-03-14T02:46:03;0.88;;;0.57;;
12852;SDS011;6495;51.808;7.478;2023-03-14T02:48:34;3.30;;;0.68;;
12852;SDS011;6495;51.808;7.478;2023-03-14T02:51:10;1.65;;;0.70;;
12852;SDS011;6495;51.808;7.478;2023-03-14T02:53:40;4.55;;;1.02;;
12852;SDS011;6495;51.808;7.478;2023-03-14T02:56:11;2.17;;;0.90;;
12852;SDS011;6495;51.808;7.478;2023-03-14T02:58:41;3.30;;;0.90;;
12852;SDS011;6495;51.808;7.478;2023-03-14T03:01:22;2.10;;;0.80;;
12852;SDS011;6495;51.808;7.478;2023-03-14T03:03:51;0.75;;;0.60;;
12852;SDS011;6495;51.808;7.478;2023-03-14T03:06:19;2.60;;;0.77;;
12852;SDS011;6495;51.808;7.478;2023-03-14T03:08:47;2.33;;;0.80;;
12852;SDS011;6495;51.808;7.478;2023-03-14T03:11:16;1.33;;;0.70;;
12852;SDS011;6495;51.808;7.478;2023-03-14T03:13:46;1.70;;;0.73;;
12852;SDS011;6495;51.808;7.478;2023-03-14T03:16:14;2.75;;;0.85;;
12852;SDS011;6495;51.808;7.478;2023-03-14T03:18:43;3.10;;;0.68;;
12852;SDS011;6495;51.808;7.478;2023-03-14T03:21:11;1.75;;;0.63;;
12852;SDS011;6495;51.808;7.478;2023-03-14T03:23:42;1.45;;;0.70;;
12852;SDS011;6495;51.808;7.478;2023-03-14T03:26:10;3.75;;;0.90;;
12852;SDS011;6495;51.808;7.478;2023-03-14T03:28:39;3.30;;;0.90;;
12852;SDS011;6495;51.808;7.478;2023-03-14T03:31:09;3.70;;;0.82;;
12852;SDS011;6495;51.808;7.478;2023-03-14T03:33:39;3.20;;;0.98;;
12852;SDS011;6495;51.808;7.478;2023-03-14T03:36:08;3.85;;;1.25;;
12852;SDS011;6495;51.808;7.478;2023-03-14T03:38:39;2.75;;;1.00;;
12852;SDS011;6495;51.808;7.478;2023-03-14T03:41:08;3.42;;;1.10;;
12852;SDS011;6495;51.808;7.478;2023-03-14T03:43:36;4.70;;;1.20;;
12852;SDS011;6495;51.808;7.478;2023-03-14T03:46:09;3.15;;;0.88;;
12852;SDS011;6495;51.808;7.478;2023-03-14T03:48:37;2.78;;;1.10;;
12852;SDS011;6495;51.808;7.478;2023-03-14T03:51:06;2.60;;;0.90;;
12852;SDS011;6495;51.808;7.478;2023-03-14T03:53:38;3.17;;;1.10;;
12852;SDS011;6495;51.808;7.478;2023-03-14T03:56:09;0.93;;;0.90;;
12852;SDS011;6495;51.808;7.478;2023-03-14T03:58:39;1.95;;;1.08;;
12852;SDS011;6495;51.808;7.478;2023-03-14T04:01:10;1.13;;;0.90;;
12852;SDS011;6495;51.808;7.478;2023-03-14T04:03:39;1.88;;;0.90;;
12852;SDS011;6495;51.808;7.478;2023-03-14T04:06:09;4.15;;;1.00;;
12852;SDS011;6495;51.808;7.478;2023-03-14T04:08:42;1.42;;;1.05;;
12852;SDS011;6495;51.808;7.478;2023-03-14T04:11:23;3.95;;;0.90;;
12852;SDS011;6495;51.808;7.478;2023-03-14T04:14:02;3.58;;;1.17;;
12852;SDS011;6495;51.808;7.478;2023-03-14T04:16:33;6.47;;;1.20;;
12852;SDS011;6495;51.808;7.478;2023-03-14T04:19:10;4.95;;;0.85;;
12852;SDS011;6495;51.808;7.478;2023-03-14T04:21:38;3.35;;;1.10;;
12852;SDS011;6495;51.808;7.478;2023-03-14T04:24:11;3.70;;;0.77;;
12852;SDS011;6495;51.808;7.478;2023-03-14T04:26:42;4.72;;;1.00;;
12852;SDS011;6495;51.808;7.478;2023-03-14T04:29:11;5.88;;;0.80;;
12852;SDS011;6495;51.808;7.478;2023-03-14T04:31:43;5.80;;;1.52;;
12852;SDS011;6495;51.808;7.478;2023-03-14T04:34:11;2.88;;;1.10;;
12852;SDS011;6495;51.808;7.478;2023-03-14T04:36:46;5.03;;;0.90;;
12852;SDS011;6495;51.808;7.478;2023-03-14T04:39:19;3.97;;;1.08;;
12852;SDS011;6495;51.808;7.478;2023-03-14T04:41:57;2.88;;;0.80;;
12852;SDS011;6495;51.808;7.478;2023-03-14T04:44:25;0.70;;;0.43;;
12852;SDS011;6495;51.808;7.478;2023-03-14T04:46:55;1.52;;;0.77;;
12852;SDS011;6495;51.808;7.478;2023-03-14T04:49:24;1.38;;;1.10;;
12852;SDS011;6495;51.808;7.478;2023-03-14T04:51:52;4.05;;;0.80;;
12852;SDS011;6495;51.808;7.478;2023-03-14T04:54:23;2.83;;;1.17;;
12852;SDS011;6495;51.808;7.478;2023-03-14T04:56:55;1.70;;;0.70;;
12852;SDS011;6495;51.808;7.478;2023-03-14T04:59:26;3.55;;;1.40;;
12852;SDS011;6495;51.808;7.478;2023-03-14T05:02:03;2.15;;;0.63;;
12852;SDS011;6495;51.808;7.478;2023-03-14T05:04:45;4.75;;;0.80;;
12852;SDS011;6495;51.808;7.478;2023-03-14T05:07:23;3.95;;;0.85;;
12852;SDS011;6495;51.808;7.478;2023-03-14T05:10:05;2.13;;;1.08;;
12852;SDS011;6495;51.808;7.478;2023-03-14T05:12:57;3.50;;;0.90;;
12852;SDS011;6495;51.808;7.478;2023-03-14T05:15:47;1.15;;;0.70;;
12852;SDS011;6495;51.808;7.478;2023-03-14T05:18:44;3.85;;;0.55;;
12852;SDS011;6495;51.808;7.478;2023-03-14T05:21:48;1.05;;;0.65;;
12852;SDS011;6495;51.808;7.478;2023-03-14T05:24:27;1.95;;;1.00;;
12852;SDS011;6495;51.808;7.478;2023-03-14T05:27:10;1.48;;;0.75;;
12852;SDS011;6495;51.808;7.478;2023-03-14T05:30:01;1.30;;;0.57;;
12852;SDS011;6495;51.808;7.478;2023-03-14T05:32:39;0.73;;;0.47;;
12852;SDS011;6495;51.808;7.478;2023-03-14T05:35:28;1.73;;;0.60;;
12852;SDS011;6495;51.808;7.478;2023-03-14T05:38:15;0.88;;;0.45;;
12852;SDS011;6495;51.808;7.478;2023-03-14T05:41:03;0.50;;;0.50;;
12852;SDS011;6495;51.808;7.478;2023-03-14T05:43:51;0.45;;;0.35;;
12852;SDS011;6495;51.808;7.478;2023-03-14T05:46:38;3.17;;;0.52;;
12852;SDS011;6495;51.808;7.478;2023-03-14T05:49:34;0.88;;;0.63;;
12852;SDS011;6495;51.808;7.478;2023-03-14T05:52:19;0.70;;;0.57;;
12852;SDS011;6495;51.808;7.478;2023-03-14T05:55:07;0.55;;;0.43;;
12852;SDS011;6495;51.808;7.478;2023-03-14T05:57:52;0.40;;;0.40;;
12852;SDS011;6495;51.808;7.478;2023-03-14T06:00:50;0.65;;;0.57;;
12852;SDS011;6495;51.808;7.478;2023-03-14T06:03:33;2.78;;;1.05;;
12852;SDS011;6495;51.808;7.478;2023-03-14T06:06:08;0.80;;;0.75;;
12852;SDS011;6495;51.808;7.478;2023-03-14T06:08:38;0.88;;;0.80;;
12852;SDS011;6495;51.808;7.478;2023-03-14T06:11:09;0.73;;;0.57;;
12852;SDS011;6495;51.808;7.478;2023-03-14T06:13:37;2.38;;;0.60;;
12852;SDS011;6495;51.808;7.478;2023-03-14T06:16:10;2.85;;;0.65;;
12852;SDS011;6495;51.808;7.478;2023-03-14T06:18:39;0.47;;;0.35;;
12852;SDS011;6495;51.808;7.478;2023-03-14T06:21:13;0.68;;;0.63;;
12852;SDS011;6495;51.808;7.478;2023-03-14T06:23:46;1.48;;;0.70;;
12852;SDS011;6495;51.808;7.478;2023-03-14T06:26:15;1.10;;;0.52;;
12852;SDS011;6495;51.808;7.478;2023-03-14T06:28:43;0.65;;;0.50;;
12852;SDS011;6495;51.808;7.478;2023-03-14T06:31:12;1.95;;;0.80;;
12852;SDS011;6495;51.808;7.478;2023-03-14T06:33:50;1.10;;;0.60;;
12852;SDS011;6495;51.808;7.478;2023-03-14T06:36:20;0.60;;;0.57;;
12852;SDS011;6495;51.808;7.478;2023-03-14T06:38:50;0.68;;;0.65;;
12852;SDS011;6495;51.808;7.478;2023-03-14T06:41:19;1.65;;;0.73;;
12852;SDS011;6495;51.808;7.478;2023-03-14T06:43:50;1.05;;;0.60;;
12852;SDS011;6495;51.808;7.478;2023-03-14T06:46:21;3.40;;;1.00;;
12852;SDS011;6495;51.808;7.478;2023-03-14T06:48:50;0.80;;;0.75;;
12852;SDS011;6495;51.808;7.478;2023-03-14T06:51:18;1.55;;;0.82;;
12852;SDS011;6495;51.808;7.478;2023-03-14T06:53:47;1.17;;;1.00;;
12852;SDS011;6495;51.808;7.478;2023-03-14T06:56:20;1.35;;;0.85;;
12852;SDS011;6495;51.808;7.478;2023-03-14T06:58:49;2.03;;;1.10;;
12852;SDS011;6495;51.808;7.478;2023-03-14T07:01:20;2.35;;;1.33;;
12852;SDS011;6495;51.808;7.478;2023-03-14T07:03:55;1.13;;;1.02;;
12852;SDS011;6495;51.808;7.478;2023-03-14T07:06:23;1.20;;;1.10;;
12852;SDS011;6495;51.808;7.478;2023-03-14T07:08:52;1.75;;;1.17;;
12852;SDS011;6495;51.808;7.478;2023-03-14T07:11:23;2.47;;;1.35;;
12852;SDS011;6495;51.808;7.478;2023-03-14T07:13:51;1.10;;;1.00;;
12852;SDS011;6495;51.808;7.478;2023-03-14T07:16:20;2.00;;;1.40;;
12852;SDS011;6495;51.808;7.478;2023-03-14T07:18:50;1.35;;;1.25;;
12852;SDS011;6495;51.808;7.478;2023-03-14T07:21:19;1.92;;;1.40;;
12852;SDS011;6495;51.808;7.478;2023-03-14T07:23:47;2.45;;;1.50;;
12852;SDS011;6495;51.808;7.478;2023-03-14T07:26:17;3.13;;;1.35;;
12852;SDS011;6495;51.808;7.478;2023-03-14T07:28:50;1.95;;;1.15;;
12852;SDS011;6495;51.808;7.478;2023-03-14T07:31:20;1.77;;;1.42;;
12852;SDS011;6495;51.808;7.478;2023-03-14T07:33:50;1.95;;;1.55;;
12852;SDS011;6495;51.808;7.478;2023-03-14T07:36:20;2.22;;;1.60;;
12852;SDS011;6495;51.808;7.478;2023-03-14T07:38:49;2.85;;;1.50;;
12852;SDS011;6495;51.808;7.478;2023-03-14T07:41:18;2.72;;;1.60;;
12852;SDS011;6495;51.808;7.478;2023-03-14T07:44:08;1.52;;;1.42;;
12852;SDS011;6495;51.808;7.478;2023-03-14T07:46:37;2.28;;;1.50;;
12852;SDS011;6495;51.808;7.478;2023-03-14T07:49:05;2.20;;;1.58;;
12852;SDS011;6495;51.808;7.478;2023-03-14T07:51:34;4.10;;;1.83;;
12852;SDS011;6495;51.808;7.478;2023-03-14T07:54:02;1.83;;;1.65;;
12852;SDS011;6495;51.808;7.478;2023-03-14T07:56:31;2.38;;;1.60;;
12852;SDS011;6495;51.808;7.478;2023-03-14T07:58:59;3.13;;;1.80;;
12852;SDS011;6495;51.808;7.478;2023-03-14T08:01:29;2.63;;;1.70;;
12852;SDS011;6495;51.808;7.478;2023-03-14T08:03:57;1.98;;;1.75;;
12852;SDS011;6495;51.808;7.478;2023-03-14T08:06:26;2.55;;;1.83;;
12852;SDS011;6495;51.808;7.478;2023-03-14T08:08:55;1.70;;;1.50;;
12852;SDS011;6495;51.808;7.478;2023-03-14T08:11:23;1.40;;;1.30;;
12852;SDS011;6495;51.808;7.478;2023-03-14T08:13:51;1.70;;;1.60;;
12852;SDS011;6495;51.808;7.478;2023-03-14T08:16:20;2.63;;;1.55;;
12852;SDS011;6495;51.808;7.478;2023-03-14T08:18:50;3.55;;;1.90;;
12852;SDS011;6495;51.808;7.478;2023-03-14T08:21:20;1.67;;;1.40;;
12852;SDS011;6495;51.808;7.478;2023-03-14T08:23:48;2.28;;;1.63;;
12852;SDS011;6495;51.808;7.478;2023-03-14T08:26:16;3.22;;;1.40;;
12852;SDS011;6495;51.808;7.478;2023-03-14T08:28:45;2.20;;;1.85;;
12852;SDS011;6495;51.808;7.478;2023-03-14T08:31:13;2.60;;;1.95;;
12852;SDS011;6495;51.808;7.478;2023-03-14T08:33:42;2.42;;;1.77;;
12852;SDS011;6495;51.808;7.478;2023-03-14T08:36:12;2.58;;;1.75;;
12852;SDS011;6495;51.808;7.478;2023-03-14T08:38:40;2.17;;;1.88;;
12852;SDS011;6495;51.808;7.478;2023-03-14T08:41:09;2.40;;;2.20;;
12852;SDS011;6495;51.808;7.478;2023-03-14T08:43:38;2.70;;;2.42;;
12852;SDS011;6495;51.808;7.478;2023-03-14T08:46:06;2.30;;;2.10;;
12852;SDS011;6495;51.808;7.478;2023-03-14T08:48:37;2.53;;;2.30;;
12852;SDS011;6495;51.808;7.478;2023-03-14T08:51:06;3.35;;;2.40;;
12852;SDS011;6495;51.808;7.478;2023-03-14T08:53:36;3.10;;;2.40;;
12852;SDS011;6495;51.808;7.478;2023-03-14T08:56:05;3.88;;;2.60;;
12852;SDS011;6495;51.808;7.478;2023-03-14T08:58:36;3.10;;;2.15;;
12852;SDS011;6495;51.808;7.478;2023-03-14T09:01:05;4.70;;;2.28;;
12852;SDS011;6495;51.808;7.478;2023-03-14T09:03:36;2.30;;;2.10;;
12852;SDS011;6495;51.808;7.478;2023-03-14T09:06:06;3.20;;;2.25;;
12852;SDS011;6495;51.808;7.478;2023-03-14T09:08:38;2.47;;;2.25;;
12852;SDS011;6495;51.808;7.478;2023-03-14T09:11:07;2.30;;;2.10;;
12852;SDS011;6495;51.808;7.478;2023-03-14T09:13:36;2.50;;;2.30;;
12852;SDS011;6495;51.808;7.478;2023-03-14T09:16:06;2.25;;;2.05;;
12852;SDS011;6495;51.808;7.478;2023-03-14T09:18:35;2.47;;;2.20;;
12852;SDS011;6495;51.808;7.478;2023-03-14T09:21:04;3.10;;;2.30;;
12852;SDS011;6495;51.808;7.478;2023-03-14T09:23:33;2.72;;;2.40;;
12852;SDS011;6495;51.808;7.478;2023-03-14T09:26:03;2.10;;;1.83;;
12852;SDS011;6495;51.808;7.478;2023-03-14T09:28:32;3.28;;;2.00;;
12852;SDS011;6495;51.808;7.478;2023-03-14T09:31:06;2.35;;;2.13;;
12852;SDS011;6495;51.808;7.478;2023-03-14T09:33:35;1.90;;;1.75;;
12852;SDS011;6495;51.808;7.478;2023-03-14T09:36:08;1.90;;;1.70;;
12852;SDS011;6495;51.808;7.478;2023-03-14T09:38:37;2.10;;;1.52;;
12852;SDS011;6495;51.808;7.478;2023-03-14T09:41:12;1.83;;;1.60;;
12852;SDS011;6495;51.808;7.478;2023-03-14T09:43:45;1.90;;;0.95;;
12852;SDS011;6495;51.808;7.478;2023-03-14T09:46:17;1.02;;;0.60;;
12852;SDS011;6495;51.808;7.478;2023-03-14T09:48:46;0.22;;;0.22;;
12852;SDS011;6495;51.808;7.478;2023-03-14T09:51:16;0.25;;;0.25;;
12852;SDS011;6495;51.808;7.478;2023-03-14T09:53:49;0.20;;;0.20;;
12852;SDS011;6495;51.808;7.478;2023-03-14T09:56:23;0.10;;;0.10;;
12852;SDS011;6495;51.808;7.478;2023-03-14T09:58:57;0.13;;;0.13;;
12852;SDS011;6495;51.808;7.478;2023-03-14T10:01:31;0.20;;;0.20;;
12852;SDS011;6495;51.808;7.478;2023-03-14T10:04:02;0.10;;;0.10;;
12852;SDS011;6495;51.808;7.478;2023-03-14T10:06:39;0.10;;;0.10;;
12852;SDS011;6495;51.808;7.478;2023-03-14T10:09:11;0.10;;;0.10;;
12852;SDS011;6495;51.808;7.478;2023-03-14T10:11:54;0.13;;;0.13;;
12852;SDS011;6495;51.808;7.478;2023-03-14T10:14:31;0.00;;;0.00;;
12852;SDS011;6495;51.808;7.478;2023-03-14T10:17:05;1.75;;;0.35;;
12852;SDS011;6495;51.808;7.478;2023-03-14T10:19:37;0.17;;;0.17;;
12852;SDS011;6495;51.808;7.478;2023-03-14T10:22:20;1.27;;;0.35;;
12852;SDS011;6495;51.808;7.478;2023-03-14T10:24:53;0.10;;;0.10;;
12852;SDS011;6495;51.808;7.478;2023-03-14T10:27:32;0.22;;;0.20;;
12852;SDS011;6495;51.808;7.478;2023-03-14T10:30:04;0.00;;;0.00;;
12852;SDS011;6495;51.808;7.478;2023-03-14T10:32:36;0.28;;;0.28;;
12852;SDS011;6495;51.808;7.478;2023-03-14T10:35:18;0.10;;;0.10;;
12852;SDS011;6495;51.808;7.478;2023-03-14T10:37:53;0.20;;;0.20;;
12852;SDS011;6495;51.808;7.478;2023-03-14T10:40:26;0.37;;;0.20;;
12852;SDS011;6495;51.808;7.478;2023-03-14T10:43:00;0.13;;;0.13;;
12852;SDS011;6495;51.808;7.478;2023-03-14T10:45:35;0.23;;;0.23;;
12852;SDS011;6495;51.808;7.478;2023-03-14T10:48:15;0.20;;;0.20;;
12852;SDS011;6495;51.808;7.478;2023-03-14T10:50:48;0.00;;;0.00;;
12852;SDS011;6495;51.808;7.478;2023-03-14T10:53:23;0.10;;;0.10;;
12852;SDS011;6495;51.808;7.478;2023-03-14T10:55:55;0.43;;;0.43;;
12852;SDS011;6495;51.808;7.478;2023-03-14T10:58:37;0.17;;;0.13;;
12852;SDS011;6495;51.808;7.478;2023-03-14T11:01:25;0.47;;;0.20;;
12852;SDS011;6495;51.808;7.478;2023-03-14T11:04:08;0.07;;;0.07;;
12852;SDS011;6495;51.808;7.478;2023-03-14T11:06:55;0.03;;;0.03;;
12852;SDS011;6495;51.808;7.478;2023-03-14T11:09:33;0.83;;;0.57;;
12852;SDS011;6495;51.808;7.478;2023-03-14T11:12:13;0.33;;;0.33;;
12852;SDS011;6495;51.808;7.478;2023-03-14T11:15:09;0.90;;;0.40;;
12852;SDS011;6495;51.808;7.478;2023-03-14T11:17:46;0.37;;;0.37;;
12852;SDS011;6495;51.808;7.478;2023-03-14T11:20:32;0.53;;;0.20;;
12852;SDS011;6495;51.808;7.478;2023-03-14T11:23:12;0.40;;;0.40;;
12852;SDS011;6495;51.808;7.478;2023-03-14T11:25:47;1.67;;;0.40;;
12852;SDS011;6495;51.808;7.478;2023-03-14T11:28:28;0.50;;;0.40;;
12852;SDS011;6495;51.808;7.478;2023-03-14T11:31:06;1.20;;;0.63;;
12852;SDS011;6495;51.808;7.478;2023-03-14T11:33:46;1.30;;;0.83;;
12852;SDS011;6495;51.808;7.478;2023-03-14T11:36:25;1.17;;;0.60;;
12852;SDS011;6495;51.808;7.478;2023-03-14T11:39:00;0.80;;;0.80;;
12852;SDS011;6495;51.808;7.478;2023-03-14T11:41:30;0.80;;;0.70;;
12852;SDS011;6495;51.808;7.478;2023-03-14T11:44:04;0.80;;;0.80;;
12852;SDS011;6495;51.808;7.478;2023-03-14T11:46:48;1.17;;;0.50;;
12852;SDS011;6495;51.808;7.478;2023-03-14T11:49:28;2.43;;;0.77;;
12852;SDS011;6495;51.808;7.478;2023-03-14T11:52:05;1.80;;;0.63;;
12852;SDS011;6495;51.808;7.478;2023-03-14T11:54:41;0.97;;;0.67;;
12852;SDS011;6495;51.808;7.478;2023-03-14T11:57:16;0.87;;;0.30;;
12852;SDS011;6495;51.808;7.478;2023-03-14T11:59:50;2.67;;;0.77;;
12852;SDS011;6495;51.808;7.478;2023-03-14T12:02:28;1.97;;;0.73;;
12852;SDS011;6495;51.808;7.478;2023-03-14T12:08:22;1.20;;;0.70;;
12852;SDS011;6495;51.808;7.478;2023-03-14T12:11:10;2.30;;;0.57;;
12852;SDS011;6495;51.808;7.478;2023-03-14T12:13:58;3.87;;;1.10;;
12852;SDS011;6495;51.808;7.478;2023-03-14T12:19:28;2.97;;;1.03;;
12852;SDS011;6495;51.808;7.478;2023-03-14T12:25:04;2.90;;;0.90;;
12852;SDS011;6495;51.808;7.478;2023-03-14T12:27:44;1.57;;;0.70;;
12852;SDS011;6495;51.808;7.478;2023-03-14T12:30:32;4.97;;;0.90;;
12852;SDS011;6495;51.808;7.478;2023-03-14T12:35:59;0.67;;;0.67;;
12852;SDS011;6495;51.808;7.478;2023-03-14T12:38:52;4.00;;;0.80;;
12852;SDS011;6495;51.808;7.478;2023-03-14T12:41:53;2.53;;;0.77;;
12852;SDS011;6495;51.808;7.478;2023-03-14T12:44:41;1.77;;;0.60;;
12852;SDS011;6495;51.808;7.478;2023-03-14T12:50:31;6.37;;;1.30;;
12852;SDS011;6495;51.808;7.478;2023-03-14T12:53:22;6.80;;;0.97;;
12852;SDS011;6495;51.808;7.478;2023-03-14T12:56:22;6.13;;;1.80;;
12852;SDS011;6495;51.808;7.478;2023-03-14T13:02:13;3.97;;;1.13;;
12852;SDS011;6495;51.808;7.478;2023-03-14T13:04:51;4.73;;;1.37;;
12852;SDS011;6495;51.808;7.478;2023-03-14T13:07:31;10.67;;;1.63;;
12852;SDS011;6495;51.808;7.478;2023-03-14T13:10:19;5.40;;;1.53;;
12852;SDS011;6495;51.808;7.478;2023-03-14T13:12:53;7.00;;;1.47;;
12852;SDS011;6495;51.808;7.478;2023-03-14T13:15:26;5.23;;;1.13;;
12852;SDS011;6495;51.808;7.478;2023-03-14T13:17:59;6.30;;;2.23;;
12852;SDS011;6495;51.808;7.478;2023-03-14T13:20:36;3.00;;;0.97;;
12852;SDS011;6495;51.808;7.478;2023-03-14T13:23:21;4.30;;;1.00;;
12852;SDS011;6495;51.808;7.478;2023-03-14T13:25:52;10.00;;;1.50;;
12852;SDS011;6495;51.808;7.478;2023-03-14T13:28:21;3.80;;;1.20;;
12852;SDS011;6495;51.808;7.478;2023-03-14T13:30:54;5.37;;;1.50;;
12852;SDS011;6495;51.808;7.478;2023-03-14T13:33:25;5.57;;;1.20;;
12852;SDS011;6495;51.808;7.478;2023-03-14T13:35:55;7.27;;;1.40;;
12852;SDS011;6495;51.808;7.478;2023-03-14T13:38:26;5.93;;;1.30;;
12852;SDS011;6495;51.808;7.478;2023-03-14T13:40:59;4.73;;;1.33;;
12852;SDS011;6495;51.808;7.478;2023-03-14T13:43:32;3.43;;;1.50;;
12852;SDS011;6495;51.808;7.478;2023-03-14T13:46:11;7.13;;;1.33;;
12852;SDS011;6495;51.808;7.478;2023-03-14T13:48:44;7.57;;;1.00;;
12852;SDS011;6495;51.808;7.478;2023-03-14T13:51:16;3.77;;;1.40;;
12852;SDS011;6495;51.808;7.478;2023-03-14T13:53:47;8.23;;;1.50;;
12852;SDS011;6495;51.808;7.478;2023-03-14T13:56:19;5.30;;;0.83;;
12852;SDS011;6495;51.808;7.478;2023-03-14T13:58:49;8.77;;;1.47;;
12852;SDS011;6495;51.808;7.478;2023-03-14T14:01:19;7.80;;;1.50;;
12852;SDS011;6495;51.808;7.478;2023-03-14T14:03:58;3.17;;;1.20;;
12852;SDS011;6495;51.808;7.478;2023-03-14T14:06:35;1.40;;;0.80;;
12852;SDS011;6495;51.808;7.478;2023-03-14T14:09:09;2.30;;;0.63;;
12852;SDS011;6495;51.808;7.478;2023-03-14T14:11:48;7.03;;;1.33;;
12852;SDS011;6495;51.808;7.478;2023-03-14T14:14:41;4.80;;;1.37;;
12852;SDS011;6495;51.808;7.478;2023-03-14T14:17:14;3.87;;;1.20;;
12852;SDS011;6495;51.808;7.478;2023-03-14T14:19:47;5.10;;;1.00;;
12852;SDS011;6495;51.808;7.478;2023-03-14T14:22:17;1.37;;;1.00;;
12852;SDS011;6495;51.808;7.478;2023-03-14T14:24:47;3.70;;;1.27;;
12852;SDS011;6495;51.808;7.478;2023-03-14T14:27:19;6.43;;;1.80;;
12852;SDS011;6495;51.808;7.478;2023-03-14T14:29:58;5.80;;;1.40;;
12852;SDS011;6495;51.808;7.478;2023-03-14T14:32:34;8.40;;;1.20;;
12852;SDS011;6495;51.808;7.478;2023-03-14T14:35:05;6.67;;;1.60;;
12852;SDS011;6495;51.808;7.478;2023-03-14T14:37:41;2.50;;;0.97;;
12852;SDS011;6495;51.808;7.478;2023-03-14T14:40:15;7.60;;;1.37;;
12852;SDS011;6495;51.808;7.478;2023-03-14T14:42:49;3.20;;;0.80;;
12852;SDS011;6495;51.808;7.478;2023-03-14T14:45:19;5.60;;;1.03;;
12852;SDS011;6495;51.808;7.478;2023-03-14T14:47:51;2.30;;;0.80;;
12852;SDS011;6495;51.808;7.478;2023-03-14T14:50:26;4.93;;;1.13;;
12852;SDS011;6495;51.808;7.478;2023-03-14T14:52:58;10.20;;;1.93;;
12852;SDS011;6495;51.808;7.478;2023-03-14T14:55:30;5.13;;;1.10;;
12852;SDS011;6495;51.808;7.478;2023-03-14T14:58:16;3.57;;;1.23;;
12852;SDS011;6495;51.808;7.478;2023-03-14T15:00:52;3.90;;;1.17;;
12852;SDS011;6495;51.808;7.478;2023-03-14T15:03:28;3.47;;;1.50;;
12852;SDS011;6495;51.808;7.478;2023-03-14T15:05:59;2.20;;;1.03;;
12852;SDS011;6495;51.808;7.478;2023-03-14T15:08:28;3.57;;;1.17;;
12852;SDS011;6495;51.808;7.478;2023-03-14T15:10:58;6.57;;;1.30;;
12852;SDS011;6495;51.808;7.478;2023-03-14T15:13:28;2.67;;;0.60;;
12852;SDS011;6495;51.808;7.478;2023-03-14T15:15:57;3.03;;;0.87;;
12852;SDS011;6495;51.808;7.478;2023-03-14T15:18:27;4.60;;;1.03;;
12852;SDS011;6495;51.808;7.478;2023-03-14T15:21:01;6.77;;;1.40;;
12852;SDS011;6495;51.808;7.478;2023-03-14T15:23:46;7.30;;;1.23;;
12852;SDS011;6495;51.808;7.478;2023-03-14T15:26:38;1.90;;;0.60;;
12852;SDS011;6495;51.808;7.478;2023-03-14T15:29:08;2.90;;;1.37;;
12852;SDS011;6495;51.808;7.478;2023-03-14T15:31:38;4.67;;;1.00;;
12852;SDS011;6495;51.808;7.478;2023-03-14T15:34:09;2.67;;;1.00;;
12852;SDS011;6495;51.808;7.478;2023-03-14T15:36:38;4.07;;;1.20;;
12852;SDS011;6495;51.808;7.478;2023-03-14T15:39:06;1.03;;;0.50;;
12852;SDS011;6495;51.808;7.478;2023-03-14T15:41:37;2.87;;;0.80;;
12852;SDS011;6495;51.808;7.478;2023-03-14T15:44:07;2.03;;;1.00;;
12852;SDS011;6495;51.808;7.478;2023-03-14T15:46:35;2.55;;;0.40;;
12852;SDS011;6495;51.808;7.478;2023-03-14T15:49:04;0.97;;;0.73;;
12852;SDS011;6495;51.808;7.478;2023-03-14T15:51:32;2.27;;;0.87;;
12852;SDS011;6495;51.808;7.478;2023-03-14T15:54:00;4.00;;;0.93;;
12852;SDS011;6495;51.808;7.478;2023-03-14T15:56:29;3.47;;;0.80;;
12852;SDS011;6495;51.808;7.478;2023-03-14T15:58:58;1.80;;;0.53;;
12852;SDS011;6495;51.808;7.478;2023-03-14T16:01:28;3.20;;;0.63;;
12852;SDS011;6495;51.808;7.478;2023-03-14T16:03:56;5.17;;;1.17;;